createdAt,value
2017-06-14T00:02:21.703Z,13.50
2017-06-14T00:04:49.249Z,13.40
2017-06-14T00:07:16.786Z,13.50
2017-06-14T00:09:45.076Z,13.40
2017-06-14T00:12:12.637Z,13.40
2017-06-14T00:14:40.153Z,13.40
2017-06-14T00:17:07.685Z,13.40
2017-06-14T00:19:35.239Z,13.30
2017-06-14T00:22:02.763Z,13.20
2017-06-14T00:24:31.075Z,13.10
2017-06-14T00:26:58.590Z,13.10
2017-06-14T00:29:26.899Z,13.20
2017-06-14T00:31:54.420Z,13.20
2017-06-14T00:34:23.330Z,13.20
2017-06-14T00:36:50.853Z,13.10
2017-06-14T00:39:18.423Z,13.20
2017-06-14T00:41:46.726Z,13.00
2017-06-14T00:44:14.245Z,13.00
2017-06-14T00:46:41.785Z,12.90
2017-06-14T00:49:09.309Z,12.90
2017-06-14T00:51:36.857Z,12.80
2017-06-14T00:54:04.380Z,12.90
2017-06-14T00:56:31.935Z,12.90
2017-06-14T00:58:59.456Z,12.90
2017-06-14T01:01:27.002Z,13.00
2017-06-14T01:03:54.519Z,13.00
2017-06-14T01:06:22.069Z,12.90
2017-06-14T01:08:49.580Z,12.80
2017-06-14T01:11:17.102Z,12.70
2017-06-14T01:13:44.634Z,12.60
2017-06-14T01:16:12.158Z,12.50
2017-06-14T01:18:39.705Z,12.50
2017-06-14T01:21:07.223Z,12.50
2017-06-14T01:23:34.770Z,12.50
2017-06-14T01:26:02.286Z,12.40
2017-06-14T01:28:29.817Z,12.40
2017-06-14T01:30:59.049Z,12.30
2017-06-14T01:33:26.585Z,12.30
2017-06-14T01:35:54.873Z,12.20
2017-06-14T01:38:22.404Z,12.20
2017-06-14T01:40:49.946Z,12.10
2017-06-14T01:43:17.477Z,12.10
2017-06-14T01:45:45.029Z,12.10
2017-06-14T01:48:12.549Z,12.00
2017-06-14T01:50:40.866Z,12.00
2017-06-14T01:53:08.386Z,12.00
2017-06-14T01:55:36.696Z,12.10
2017-06-14T01:58:04.220Z,12.10
2017-06-14T02:00:32.499Z,12.20
2017-06-14T02:03:00.807Z,12.10
2017-06-14T02:05:28.328Z,12.10
2017-06-14T02:07:55.882Z,12.10
2017-06-14T02:10:23.396Z,12.10
2017-06-14T02:12:50.948Z,12.00
2017-06-14T02:15:18.464Z,12.00
2017-06-14T02:17:46.765Z,11.90
2017-06-14T02:20:14.289Z,11.80
2017-06-14T02:22:41.806Z,11.80
2017-06-14T02:25:09.354Z,11.90
2017-06-14T02:27:36.873Z,11.90
2017-06-14T02:30:04.422Z,11.90
2017-06-14T02:32:31.937Z,12.00
2017-06-14T02:34:59.471Z,12.00
2017-06-14T02:37:26.996Z,12.00
2017-06-14T02:39:54.537Z,11.90
2017-06-14T02:42:22.057Z,11.80
2017-06-14T02:44:49.602Z,11.70
2017-06-14T02:47:17.136Z,11.70
2017-06-14T02:49:44.667Z,11.70
2017-06-14T02:52:15.503Z,11.70
2017-06-14T02:54:43.054Z,11.70
2017-06-14T02:57:10.602Z,11.70
2017-06-14T02:59:38.122Z,11.80
2017-06-14T03:02:10.219Z,11.70
2017-06-14T03:04:37.771Z,11.60
2017-06-14T03:07:05.314Z,11.60
2017-06-14T03:09:32.829Z,11.60
2017-06-14T03:12:00.372Z,11.60
2017-06-14T03:14:27.899Z,11.60
2017-06-14T03:16:55.442Z,11.70
2017-06-14T03:19:23.766Z,11.80
2017-06-14T03:21:51.276Z,11.80
2017-06-14T03:24:19.583Z,11.90
2017-06-14T03:26:47.103Z,11.90
2017-06-14T03:29:15.409Z,12.10
2017-06-14T03:31:42.943Z,12.00
2017-06-14T03:34:11.258Z,12.30
2017-06-14T03:36:38.825Z,12.20
2017-06-14T03:39:06.339Z,12.30
2017-06-14T03:41:34.651Z,12.30
2017-06-14T03:44:03.020Z,12.30
2017-06-14T03:46:30.568Z,12.30
2017-06-14T03:48:58.090Z,12.30
2017-06-14T03:51:25.661Z,12.40
2017-06-14T03:53:53.945Z,12.40
2017-06-14T03:56:22.233Z,12.40
2017-06-14T03:58:49.774Z,12.40
2017-06-14T04:01:18.052Z,12.50
2017-06-14T04:03:46.361Z,12.50
2017-06-14T04:06:13.888Z,12.50
2017-06-14T04:08:42.199Z,12.70
2017-06-14T04:11:09.710Z,12.70
2017-06-14T04:13:37.281Z,12.80
2017-06-14T04:16:05.566Z,12.80
2017-06-14T04:18:33.850Z,12.90
2017-06-14T04:21:01.391Z,12.90
2017-06-14T04:23:29.677Z,14.90
2017-06-14T04:25:57.982Z,18.70
2017-06-14T04:28:25.518Z,18.70
2017-06-14T04:30:53.805Z,21.70
2017-06-14T04:33:21.902Z,23.40
2017-06-14T04:35:49.457Z,24.90
2017-06-14T04:38:16.985Z,26.20
2017-06-14T04:40:44.521Z,26.70
2017-06-14T04:43:12.846Z,28.50
2017-06-14T04:45:40.372Z,28.40
2017-06-14T04:48:08.684Z,28.40
2017-06-14T04:50:36.205Z,28.40
2017-06-14T04:53:04.521Z,27.70
2017-06-14T04:55:32.049Z,27.70
2017-06-14T04:57:59.570Z,28.50
2017-06-14T05:00:27.113Z,28.00
2017-06-14T05:02:54.630Z,28.10
2017-06-14T05:05:22.169Z,29.20
2017-06-14T05:07:50.462Z,30.20
2017-06-14T05:10:18.006Z,30.20
2017-06-14T05:12:46.304Z,30.40
2017-06-14T05:15:13.868Z,30.40
2017-06-14T05:17:41.393Z,31.30
2017-06-14T05:20:09.698Z,31.80
2017-06-14T05:22:37.240Z,31.80
2017-06-14T05:25:05.541Z,32.10
2017-06-14T05:27:33.095Z,32.10
2017-06-14T05:30:00.620Z,32.00
2017-06-14T05:32:28.933Z,33.20
2017-06-14T05:34:56.455Z,33.10
2017-06-14T05:37:24.013Z,33.60
2017-06-14T05:39:51.542Z,34.30
2017-06-14T05:42:19.075Z,34.80
2017-06-14T05:44:46.632Z,34.60
2017-06-14T05:47:14.153Z,33.80
2017-06-14T05:49:42.470Z,34.40
2017-06-14T05:52:10.057Z,34.40
2017-06-14T05:54:37.616Z,34.60
2017-06-14T05:57:05.154Z,35.50
2017-06-14T05:59:32.669Z,36.50
2017-06-14T06:02:00.975Z,36.10
2017-06-14T06:04:28.489Z,36.10
2017-06-14T06:06:56.029Z,35.50
2017-06-14T06:09:23.550Z,34.90
2017-06-14T06:11:51.083Z,34.60
2017-06-14T06:14:19.362Z,35.50
2017-06-14T06:16:47.681Z,35.50
2017-06-14T06:19:15.205Z,35.40
2017-06-14T06:21:43.492Z,34.90
2017-06-14T06:24:11.970Z,34.80
2017-06-14T06:26:39.497Z,34.90
2017-06-14T06:29:07.038Z,34.20
2017-06-14T06:31:34.555Z,34.30
2017-06-14T06:34:02.093Z,34.50
2017-06-14T06:36:30.380Z,33.30
2017-06-14T06:38:57.930Z,33.30
2017-06-14T06:41:26.214Z,32.80
2017-06-14T06:43:53.750Z,32.70
2017-06-14T06:46:21.295Z,32.50
2017-06-14T06:48:48.814Z,32.80
2017-06-14T06:51:16.355Z,32.50
2017-06-14T06:53:43.891Z,32.80
2017-06-14T06:56:12.194Z,30.50
2017-06-14T06:58:39.749Z,30.40
2017-06-14T07:01:07.298Z,29.10
2017-06-14T07:03:35.578Z,26.50
2017-06-14T07:06:03.127Z,26.50
2017-06-14T07:08:31.417Z,25.60
2017-06-14T07:10:58.946Z,25.50
2017-06-14T07:13:26.487Z,25.00
2017-06-14T07:15:54.009Z,24.60
2017-06-14T07:18:21.554Z,24.60
2017-06-14T07:20:49.133Z,24.70
2017-06-14T07:23:16.676Z,25.30
2017-06-14T07:25:44.208Z,25.60
2017-06-14T07:28:12.529Z,23.90
2017-06-14T07:30:40.050Z,23.90
2017-06-14T07:33:07.577Z,23.70
2017-06-14T07:35:35.113Z,24.10
2017-06-14T07:38:02.634Z,24.80
2017-06-14T07:40:30.174Z,24.80
2017-06-14T07:42:58.469Z,25.00
2017-06-14T07:45:26.005Z,25.00
2017-06-14T07:47:54.296Z,24.00
2017-06-14T07:50:21.857Z,24.00
2017-06-14T07:52:49.373Z,24.20
2017-06-14T07:55:16.895Z,24.60
2017-06-14T07:57:44.442Z,25.70
2017-06-14T08:00:11.966Z,26.50
2017-06-14T08:02:39.585Z,26.60
2017-06-14T08:05:07.103Z,26.20
2017-06-14T08:07:35.416Z,25.60
2017-06-14T08:10:02.980Z,25.60
2017-06-14T08:12:30.538Z,25.40
2017-06-14T08:14:58.070Z,25.20
2017-06-14T08:17:26.351Z,26.20
2017-06-14T08:19:54.090Z,26.20
2017-06-14T08:22:21.619Z,26.30
2017-06-14T08:24:49.163Z,25.60
2017-06-14T08:27:16.687Z,25.40
2017-06-14T08:29:44.258Z,26.20
2017-06-14T08:32:11.796Z,26.90
2017-06-14T08:34:40.107Z,27.70
2017-06-14T08:37:07.653Z,27.60
2017-06-14T08:39:35.170Z,28.20
2017-06-14T08:42:02.709Z,27.90
2017-06-14T08:44:30.237Z,27.30
2017-06-14T08:46:57.777Z,27.00
2017-06-14T08:49:25.290Z,26.70
2017-06-14T08:51:52.827Z,26.30
2017-06-14T08:54:20.366Z,26.20
2017-06-14T08:56:47.885Z,26.20
2017-06-14T08:59:15.453Z,26.50
2017-06-14T09:01:42.975Z,26.00
2017-06-14T09:04:10.504Z,26.40
2017-06-14T09:06:38.042Z,27.20
2017-06-14T09:09:05.631Z,27.20
2017-06-14T09:11:33.182Z,26.60
2017-06-14T09:14:00.701Z,26.90
2017-06-14T09:16:28.998Z,26.70
2017-06-14T09:18:56.543Z,26.60
2017-06-14T09:21:24.068Z,26.10
2017-06-14T09:23:51.621Z,26.60
2017-06-14T09:26:19.167Z,26.40
2017-06-14T09:28:46.715Z,26.70
2017-06-14T09:31:14.234Z,27.10
2017-06-14T09:33:42.556Z,28.40
2017-06-14T09:36:10.075Z,28.40
2017-06-14T09:38:38.363Z,28.40
2017-06-14T09:41:05.908Z,28.30
2017-06-14T09:43:34.264Z,28.00
2017-06-14T09:46:01.837Z,28.00
2017-06-14T09:48:29.364Z,27.80
2017-06-14T09:50:56.906Z,27.80
2017-06-14T09:53:24.425Z,27.40
2017-06-14T09:55:51.954Z,28.10
2017-06-14T09:58:19.497Z,29.30
2017-06-14T10:00:47.014Z,29.80
2017-06-14T10:03:14.554Z,28.10
2017-06-14T10:05:42.842Z,26.40
2017-06-14T10:08:10.389Z,26.40
2017-06-14T10:10:38.685Z,27.30
2017-06-14T10:13:06.249Z,27.30
2017-06-14T10:15:33.779Z,27.40
2017-06-14T10:18:02.069Z,28.90
2017-06-14T10:20:29.627Z,28.80
2017-06-14T10:22:57.915Z,27.20
2017-06-14T10:25:25.458Z,27.20
2017-06-14T10:27:53.742Z,26.70
2017-06-14T10:30:22.049Z,26.50
2017-06-14T10:32:49.579Z,26.50
2017-06-14T10:35:17.143Z,26.70
2017-06-14T10:37:44.675Z,27.00
2017-06-14T10:40:12.964Z,29.10
2017-06-14T10:42:41.275Z,30.10
2017-06-14T10:45:08.797Z,30.00
2017-06-14T10:47:37.484Z,29.80
2017-06-14T10:50:05.762Z,29.50
2017-06-14T10:52:34.078Z,29.00
2017-06-14T10:55:01.598Z,29.00
2017-06-14T10:57:29.911Z,28.40
2017-06-14T10:59:57.438Z,28.40
2017-06-14T11:02:25.718Z,28.50
2017-06-14T11:04:53.266Z,28.50
2017-06-14T11:07:21.561Z,30.20
2017-06-14T11:09:49.108Z,30.10
2017-06-14T11:12:17.393Z,29.30
2017-06-14T11:14:44.934Z,29.30
2017-06-14T11:17:13.242Z,28.80
2017-06-14T11:19:40.810Z,28.80
2017-06-14T11:22:08.326Z,28.40
2017-06-14T11:24:36.622Z,28.80
2017-06-14T11:27:04.170Z,28.80
2017-06-14T11:29:32.453Z,28.00
2017-06-14T11:31:59.993Z,28.00
2017-06-14T11:34:27.519Z,28.10
2017-06-14T11:36:55.062Z,28.20
2017-06-14T11:39:22.598Z,28.50
2017-06-14T11:41:50.154Z,28.40
2017-06-14T11:44:17.681Z,28.30
2017-06-14T11:46:45.198Z,28.80
2017-06-14T11:49:12.742Z,28.70
2017-06-14T11:51:40.261Z,29.30
2017-06-14T11:54:08.574Z,30.20
2017-06-14T11:56:36.093Z,30.20
2017-06-14T11:59:03.649Z,29.30
2017-06-14T12:01:31.173Z,28.60
2017-06-14T12:03:58.713Z,28.50
2017-06-14T12:06:26.249Z,28.90
2017-06-14T12:08:54.573Z,29.60
2017-06-14T12:11:22.101Z,29.50
2017-06-14T12:13:49.623Z,29.30
2017-06-14T12:16:17.179Z,29.00
2017-06-14T12:18:44.710Z,29.30
2017-06-14T12:21:12.249Z,30.20
2017-06-14T12:23:39.767Z,31.00
2017-06-14T12:26:08.075Z,31.70
2017-06-14T12:28:35.595Z,31.70
2017-06-14T12:31:03.935Z,30.40
2017-06-14T12:33:31.453Z,30.40
2017-06-14T12:35:58.978Z,29.30
2017-06-14T12:38:26.516Z,29.60
2017-06-14T12:40:54.418Z,29.40
2017-06-14T12:43:22.727Z,29.20
2017-06-14T12:45:50.251Z,29.20
2017-06-14T12:48:18.590Z,30.80
2017-06-14T12:50:46.115Z,30.80
2017-06-14T12:53:13.650Z,30.90
2017-06-14T12:55:41.973Z,30.30
2017-06-14T12:58:09.492Z,30.30
2017-06-14T13:00:37.804Z,31.20
2017-06-14T13:03:05.327Z,31.20
2017-06-14T13:05:33.634Z,31.10
2017-06-14T13:08:01.157Z,31.10
2017-06-14T13:10:29.474Z,30.00
2017-06-14T13:12:56.998Z,30.00
2017-06-14T13:15:26.086Z,29.50
2017-06-14T13:17:54.403Z,29.60
2017-06-14T13:20:21.932Z,29.60
2017-06-14T13:22:50.243Z,30.00
2017-06-14T13:25:17.785Z,30.00
2017-06-14T13:27:45.326Z,30.00
2017-06-14T13:30:13.617Z,29.80
2017-06-14T13:32:41.171Z,29.70
2017-06-14T13:35:08.698Z,30.10
2017-06-14T13:37:36.224Z,30.40
2017-06-14T13:40:03.766Z,30.40
2017-06-14T13:42:31.281Z,30.40
2017-06-14T13:44:58.838Z,30.00
2017-06-14T13:47:26.360Z,29.80
2017-06-14T13:49:53.921Z,29.60
2017-06-14T13:52:21.441Z,29.80
2017-06-14T13:54:49.905Z,28.80
2017-06-14T13:57:18.198Z,28.60
2017-06-14T13:59:45.714Z,28.50
2017-06-14T14:02:13.259Z,29.20
2017-06-14T14:04:40.777Z,29.00
2017-06-14T14:07:08.321Z,28.90
2017-06-14T14:09:36.614Z,29.80
2017-06-14T14:12:04.150Z,29.80
2017-06-14T14:14:31.670Z,30.30
2017-06-14T14:16:59.239Z,31.10
2017-06-14T14:19:26.770Z,31.50
2017-06-14T14:21:54.301Z,31.60
2017-06-14T14:24:21.865Z,31.50
2017-06-14T14:26:49.384Z,31.70
2017-06-14T14:29:16.936Z,31.90
2017-06-14T14:31:44.561Z,31.40
2017-06-14T14:34:12.103Z,30.70
2017-06-14T14:36:39.636Z,30.50
2017-06-14T14:39:07.962Z,30.10
2017-06-14T14:41:35.484Z,30.00
2017-06-14T14:44:03.762Z,29.70
2017-06-14T14:46:32.935Z,29.60
2017-06-14T14:49:00.467Z,29.50
2017-06-14T14:51:28.013Z,29.70
2017-06-14T14:53:55.536Z,30.10
2017-06-14T14:56:23.091Z,30.70
2017-06-14T14:58:50.631Z,31.10
2017-06-14T15:01:18.946Z,31.60
2017-06-14T15:03:46.462Z,31.60
2017-06-14T15:06:14.002Z,31.70
2017-06-14T15:08:41.523Z,31.60
2017-06-14T15:11:09.087Z,31.60
2017-06-14T15:13:36.618Z,31.40
2017-06-14T15:16:04.919Z,31.10
2017-06-14T15:18:32.464Z,31.10
2017-06-14T15:20:59.990Z,30.80
2017-06-14T15:23:27.539Z,29.70
2017-06-14T15:25:55.054Z,29.20
2017-06-14T15:28:22.608Z,29.10
2017-06-14T15:30:51.054Z,29.00
2017-06-14T15:33:19.375Z,29.20
2017-06-14T15:35:46.893Z,29.10
2017-06-14T15:38:15.188Z,28.70
2017-06-14T15:40:42.731Z,28.60
2017-06-14T15:43:11.023Z,28.40
2017-06-14T15:45:38.565Z,28.40
2017-06-14T15:48:06.846Z,28.80
2017-06-14T15:50:35.163Z,29.20
2017-06-14T15:53:02.687Z,29.20
2017-06-14T15:55:30.983Z,29.60
2017-06-14T15:57:58.550Z,29.60
2017-06-14T16:00:26.073Z,29.50
2017-06-14T16:02:53.622Z,29.20
2017-06-14T16:05:21.138Z,28.70
2017-06-14T16:07:48.675Z,28.70
2017-06-14T16:10:16.205Z,28.70
2017-06-14T16:12:44.527Z,28.30
2017-06-14T16:15:12.050Z,28.30
2017-06-14T16:17:40.325Z,28.80
2017-06-14T16:20:08.627Z,28.90
2017-06-14T16:22:36.145Z,28.80
2017-06-14T16:25:04.472Z,29.00
2017-06-14T16:27:31.998Z,28.90
2017-06-14T16:30:00.309Z,29.10
2017-06-14T16:32:27.826Z,29.10
2017-06-14T16:34:55.378Z,28.90
2017-06-14T16:37:23.666Z,28.60
2017-06-14T16:39:51.951Z,28.40
2017-06-14T16:42:19.497Z,28.40
2017-06-14T16:44:47.850Z,28.70
2017-06-14T16:47:15.386Z,28.70
2017-06-14T16:49:42.910Z,28.80
2017-06-14T16:52:10.450Z,28.50
2017-06-14T16:54:37.969Z,28.50
2017-06-14T16:57:05.510Z,28.30
2017-06-14T16:59:33.025Z,28.00
2017-06-14T17:02:01.321Z,27.40
2017-06-14T17:04:28.862Z,27.40
2017-06-14T17:06:57.155Z,27.10
2017-06-14T17:09:24.698Z,27.10
2017-06-14T17:11:52.983Z,26.70
2017-06-14T17:14:20.528Z,26.70
2017-06-14T17:16:49.654Z,26.70
2017-06-14T17:19:17.196Z,26.70
2017-06-14T17:21:44.719Z,26.70
2017-06-14T17:24:12.266Z,26.70
2017-06-14T17:26:39.783Z,26.60
2017-06-14T17:29:07.318Z,26.50
2017-06-14T17:31:35.632Z,26.50
2017-06-14T17:34:03.154Z,26.50
2017-06-14T17:36:31.461Z,26.60
2017-06-14T17:38:58.991Z,26.60
2017-06-14T17:41:27.312Z,26.50
2017-06-14T17:43:54.837Z,26.50
2017-06-14T17:46:22.364Z,26.40
2017-06-14T17:48:49.906Z,26.20
2017-06-14T17:51:17.438Z,26.10
2017-06-14T17:53:44.978Z,26.00
2017-06-14T17:56:12.564Z,25.90
2017-06-14T17:58:40.480Z,25.80
2017-06-14T18:01:09.183Z,25.70
2017-06-14T18:03:37.511Z,25.60
2017-06-14T18:06:05.047Z,25.60
2017-06-14T18:08:32.575Z,25.50
2017-06-14T18:11:00.882Z,25.00
2017-06-14T18:13:28.418Z,25.00
2017-06-14T18:15:55.962Z,24.80
2017-06-14T18:18:23.491Z,24.60
2017-06-14T18:20:51.030Z,24.40
2017-06-14T18:23:18.566Z,24.10
2017-06-14T18:25:46.147Z,24.00
2017-06-14T18:28:13.676Z,23.80
2017-06-14T18:30:41.199Z,23.60
2017-06-14T18:33:08.738Z,23.50
2017-06-14T18:35:36.262Z,23.30
2017-06-14T18:38:03.809Z,23.20
2017-06-14T18:40:31.345Z,23.00
2017-06-14T18:42:59.653Z,22.80
2017-06-14T18:45:27.175Z,22.70
2017-06-14T18:47:55.499Z,22.50
2017-06-14T18:50:23.035Z,22.50
2017-06-14T18:52:50.558Z,22.40
2017-06-14T18:55:18.117Z,22.20
2017-06-14T18:57:45.738Z,22.10
2017-06-14T19:00:13.283Z,22.00
2017-06-14T19:02:40.854Z,21.90
2017-06-14T19:05:08.429Z,21.70
2017-06-14T19:07:35.970Z,21.50
2017-06-14T19:10:03.585Z,21.40
2017-06-14T19:12:31.139Z,21.20
2017-06-14T19:14:58.670Z,21.10
2017-06-14T19:17:26.231Z,20.90
2017-06-14T19:19:53.812Z,20.80
2017-06-14T19:22:21.368Z,20.60
2017-06-14T19:24:48.898Z,20.50
2017-06-14T19:27:17.418Z,20.40
2017-06-14T19:29:45.710Z,20.10
2017-06-14T19:32:13.274Z,20.10
2017-06-14T19:34:46.431Z,20.00
2017-06-14T19:37:13.980Z,19.80
2017-06-14T19:39:41.518Z,19.70
2017-06-14T19:42:09.073Z,19.50
2017-06-14T19:44:36.619Z,19.40
2017-06-14T19:47:04.145Z,19.20
2017-06-14T19:49:32.457Z,18.90
2017-06-14T19:52:00.022Z,18.90
2017-06-14T19:54:27.579Z,18.80
2017-06-14T19:56:55.110Z,18.70
2017-06-14T19:59:23.433Z,18.70
2017-06-14T20:01:50.949Z,18.70
2017-06-14T20:04:19.239Z,18.80
2017-06-14T20:06:46.791Z,18.80
2017-06-14T20:09:14.323Z,18.70
2017-06-14T20:11:41.890Z,18.60
2017-06-14T20:14:10.179Z,18.40
2017-06-14T20:16:37.742Z,18.40
2017-06-14T20:19:05.278Z,18.30
2017-06-14T20:21:32.805Z,18.30
2017-06-14T20:24:00.355Z,18.30
2017-06-14T20:26:27.884Z,18.20
2017-06-14T20:28:55.421Z,18.20
2017-06-14T20:31:23.714Z,17.90
2017-06-14T20:33:51.274Z,17.90
2017-06-14T20:36:18.803Z,17.80
2017-06-14T20:38:46.333Z,17.70
2017-06-14T20:41:13.875Z,17.60
2017-06-14T20:43:41.401Z,17.50
2017-06-14T20:46:08.942Z,17.40
2017-06-14T20:48:36.461Z,17.50
2017-06-14T20:51:04.007Z,17.50
2017-06-14T20:53:31.538Z,17.40
2017-06-14T20:55:59.093Z,17.30
2017-06-14T20:58:26.617Z,17.20
2017-06-14T21:00:54.143Z,17.00
2017-06-14T21:03:21.687Z,16.90
2017-06-14T21:05:49.220Z,16.80
2017-06-14T21:08:16.770Z,16.80
2017-06-14T21:10:45.071Z,16.70
2017-06-14T21:13:12.646Z,16.60
2017-06-14T21:15:40.192Z,16.60
2017-06-14T21:18:07.725Z,16.50
2017-06-14T21:20:36.052Z,16.40
2017-06-14T21:23:03.602Z,16.40
2017-06-14T21:25:31.154Z,16.30
2017-06-14T21:27:58.677Z,16.20
2017-06-14T21:30:27.008Z,16.10
2017-06-14T21:32:54.540Z,16.00
2017-06-14T21:35:22.065Z,15.90
2017-06-14T21:37:50.384Z,15.80
2017-06-14T21:40:17.906Z,15.80
2017-06-14T21:42:46.224Z,15.80
2017-06-14T21:45:13.756Z,15.70
2017-06-14T21:47:41.315Z,15.70
2017-06-14T21:50:08.851Z,15.60
2017-06-14T21:52:37.211Z,15.60
2017-06-14T21:55:04.762Z,15.50
2017-06-14T21:57:32.314Z,15.50
2017-06-14T21:59:59.881Z,15.50
2017-06-14T22:02:27.412Z,15.40
2017-06-14T22:04:54.962Z,15.30
2017-06-14T22:07:22.498Z,15.30
2017-06-14T22:09:50.819Z,15.20
2017-06-14T22:12:22.045Z,15.10
2017-06-14T22:14:49.602Z,15.10
2017-06-14T22:17:17.144Z,15.10
2017-06-14T22:19:45.433Z,15.10
2017-06-14T22:22:12.985Z,15.10
2017-06-14T22:24:40.523Z,15.10
2017-06-14T22:27:08.168Z,15.20
2017-06-14T22:29:35.780Z,15.10
2017-06-14T22:32:03.341Z,15.10
2017-06-14T22:34:30.896Z,15.10
2017-06-14T22:36:58.427Z,15.10
2017-06-14T22:39:26.742Z,15.10
2017-06-14T22:41:54.323Z,15.10
2017-06-14T22:44:21.942Z,15.00
2017-06-14T22:46:49.480Z,15.00
2017-06-14T22:49:17.042Z,14.90
2017-06-14T22:51:44.592Z,14.70
2017-06-14T22:54:12.120Z,14.50
2017-06-14T22:56:39.681Z,14.40
2017-06-14T22:59:07.209Z,14.30
2017-06-14T23:01:34.748Z,14.20
2017-06-14T23:04:03.075Z,14.30
2017-06-14T23:06:30.629Z,14.30
2017-06-14T23:08:58.159Z,14.40
2017-06-14T23:11:25.690Z,14.60
2017-06-14T23:13:54.014Z,14.70
2017-06-14T23:16:21.538Z,14.60
2017-06-14T23:18:49.698Z,14.60
2017-06-14T23:21:17.995Z,14.50
2017-06-14T23:23:45.578Z,14.50
2017-06-14T23:26:13.099Z,14.40
2017-06-14T23:28:41.419Z,14.40
2017-06-14T23:31:08.937Z,14.40
2017-06-14T23:33:37.236Z,14.30
2017-06-14T23:36:04.771Z,14.20
2017-06-14T23:38:33.067Z,14.10
2017-06-14T23:41:00.610Z,14.10
2017-06-14T23:43:28.893Z,14.10
2017-06-14T23:45:56.460Z,14.10
2017-06-14T23:48:23.982Z,13.90
2017-06-14T23:50:51.706Z,13.80
2017-06-14T23:53:19.249Z,13.70
2017-06-14T23:55:46.881Z,13.70
2017-06-14T23:58:15.188Z,13.50
